Saint Louis, MO (63101)

5:08 PM CST on February 07, 2016 (GMT -0600)
Soulard | | Change Station
CLOSE
Current Station
Personal Weather Station
Location: Saint Louis, MO
Elevation: 535 ft
Nearby Weather Stations

Elev 535 ft 38.61 °N, 90.21 °W | Updated 9 minutes ago

Clear
Clear
50.5 °F
Feels Like 50.5 °F
N
5.8
Wind Variable Wind from West

Today
High -- | Low -- °F
--% Chance of Precip.
Yesterday
High -- | Low -- °F
Precip. -- in
Pressure 29.91 in
Visibility 10.0 miles
Clouds Few 5000 ft
Scattered Clouds 10000 ft
Mostly Cloudy 20000 ft
Dew Point 32 °F
Humidity 48%
Rainfall 0.00 in
Snow Depth Not available.
7:01 AM 5:29 PM
Waning Crescent, 1% visible
METAR KSTL 072251Z 27008KT 10SM FEW050 SCT100 BKN200 11/M02 A2990 RMK AO2 SLP126 T01061022 $
Pressure 29.91 in
Visibility 10.0 miles
Clouds Few 5000 ft
Scattered Clouds 10000 ft
Mostly Cloudy 20000 ft
Dew Point 32 °F
Humidity 48%
Rainfall 0.00 in
Snow Depth Not available.
7:01 AM 5:29 PM
Waning Crescent, 1% visible
METAR KSTL 072251Z 27008KT 10SM FEW050 SCT100 BKN200 11/M02 A2990 RMK AO2 SLP126 T01061022 $

10-Day Weather Forecast

Almanac

Astronomy

Feb. 07, 2016 Rise Set
Actual Time
Civil Twilight
Nautical Twilight
Astronomical Twilight
Moon
Length of Visible Light
Length of Day
Tomorrow will be .
, % of the Moon is Illuminated

Today's Extremes

State Highs State Lows

Community

WunderPhotos

Upload Photos

1,891,325 photos uploaded!

WunderBlog® & News

Nearby

Air Quality

  Air Quality AQ Index Pollutant
Not available.

Snow Depth

Station Depth Elevation

Earthquake Activity

City Distance Mag. Time & Date
Minimum magnitude displayed is 2.5.

Coastal Water Temperatures

Place Temperature

Stations

Nearby Weather Stations

Station Location Temp. Windchill Dew Point Humidity Wind Precip. Elev Updated Type
                   

Watches & Warnings

There are currently no watches in effect.